Timeline UpdatesTrip UpdatesNews PostsPvt PostsTravel TipsAdmin PostsConv PostsFollowed PostsChat RequestsBlog PostsPNR Posts

Disclaimer
Search
 
 
Tue Sep 16, 2014 16:54:47 ISTHomeTrainsΣChainsAtlasPNRForumGalleryNewsFAQTripsMembersLoginFeedback
No Recent News for this Train
Other Trains in the News **new
Latest...
.
Sat Nov 30, 2013 (12:14PM)
⇐ Return Journey: Train# 13288

13287/South Bihar Express

Time-Table HAS CHANGED.
Sep 03 (6:46PM)
Change Departure Station:
Change Arrival Station:
Post a Train Travel TipPost a Train Travel Tip **new
Post a Comment/Question/Picture/VideoPost a Comment/Question/Picture/Video
Pantry/Catering
✕ NO Pantry Car
✓ Catering Avbl
local vendor sell items. Travelkhana.com supply food on order @...
Read more...
Rourkela/TATA
Loco/Rake Reversals
ASN/Asansol Junction (7); TATA/Tatanagar Junction (5);
RSA - Rake Sharing
Rake/Coach Composition
LOCO-SLR-GS-GS-H1-A2-A1-B3-B2-B1-S11-S10-S9-S8-S7-S6-S5-S4-S3-S2-S1-GS-GS-SLR
Loco
HWH/SRC WAP-4
News    PNR    Forum    Time-Table    Availability    Fare Chart    Map    Arr/Dep History    Trips    Gallery    ΣChains    X/O    Timeline    
Travel Time: 20h 40m    44 halts    Distance: 965 km    Avg Speed: 46 km/hr
Type: Mail/Express
Zone: ECR/East Central
Departs @ 10:30 (Avg 5m late)
Platform# 1
SMTWTFS
Bilaspur Junction/BSP 
Arrives @ 07:10 +1 night (Avg 1h 5m late)
Platform# 3
SMTWTFS
Patna Junction/PNBE 

44 halts. 165 intermediate Stations between Bilaspur Junction and Patna Junction

Show ALL intermediate Stations  Show Old Time-Table

#CodeStation NameX/OArrivesAvgDepartsAvgHaltPFDay#KmSpeedElevZoneAddress
1DURGDurg Junction (6)  -07:25+041-147.460299mSECRPh: 91-788-2322059, Chhattisgarh
2BPHBBhilai Power House (3)X  07:35 07:34+007:36+01 2m--1-138.449312mSECRBhilai, Chhattisgarh
3RRaipur Junction (6)X  08:10+108:20+210m51-110.469297mSECRRaipur, Chhattisgarh
4TLDTilda (3)  08:54 08:53+808:55+81 2m21-72.287 SECRBanjari Rd, Chhattisgarh
5BYTBhatapara (4)X  09:14 09:13+1009:15+111 2m21-46.246270mSECRBanjari Road, Chhattisgarh
6BSP»Bilaspur Junction (8)»X  10:15+110:30+515m110.063271mSECRBilaspur, Chhattisgarh
7AKTAkaltara (4)X  10:57 10:56+910:58+91 2m--127.252284mSECRDist. Janjgir Champa, Chhattisgarh
8CPHChampa Junction (3)  11:28+411:30+62m2153.091264mSECRNational Highway 200 (07819-245767), Chhattisgarh
9SKTSakti (4)  11:51 11:50+1011:52+111 2m--183.477237mSECRJanjgir-Champa, Chhattisgarh
10KHSKharsia  12:05 12:04+1312:06+131 2m--198.864 SECRNational Highway 200, Chhattisgarh
11RIGRaigarh (3)X  12:38+912:43+95m11132.895220mSECRRaigarh, Chhattisgarh
12BRJNBrajrajnagar  13:22 13:21+2313:23+231 2m--1192.719212mSECRBrajrajnagar, Odisha
13JSGJharsuguda Junction (5)X  14:00+414:05+95m--1204.481236mSERJharsuguda, Odisha
14BMBBamra (3)X  14:32+1114:33+121m--1240.980259mSERBamra PH : 06642-229268, Odisha
15GPRaj Gangpur (3)  14:59+1515:00+161m--1275.551237mSERRaj Ganpur, Odisha
16ROURourkela Junction (5)  15:35+1215:50+1215m41305.439198mSERRourkela, Odisha
17BNDMBondamunda (2)  16:00+1916:01+181m21311.971213mSERRourkela, Odisha
18MOUManoharpur  16:29+2016:30+211m31345.157228mSERManoharpur, Jharkhand
19GOLGoilkera (2)X  16:59+2317:00+251m11372.659333mSERGoilkera, Jharkhand
20SWRSonua  17:13+2317:14+241m11385.452287mSERSonua, Jharkhand
21CKPChakradharpur (3)  17:38+1617:40+162m21406.475235mSERChakradharpur (West Singhbhum), Jharkhand
22RKSNRajkharsawan Junction (3)X  17:56+2017:57+231m21426.551189mSERSaraikela Kharswan District, Jharkhand
23SINISini Junction (3)X  18:15+2118:16+221m11441.741182mSERNational Highway 33, Jharkhand
24TATATatanagar Junction (5)X18:55+1519:35+1140m21468.723164mSER91-657-2423026, Jharkhand
25ADTPAdityapur (3)  19:47+1319:48+151m11473.337152mSERJamshedpur, Jharkhand
26KNDKandra (4)  20:12 20:14+1620:13 20:15+171m--1489.328176mSERJamshedpur, Jharkhand
27CNIChandil Junction (4)X  20:45+1320:47+142m21503.578178mSERChandil, Jharkhand
28BBMBarabhum  21:04+2421:05+251m--1525.764229mSERBalarampur, West Bengal
29PRRPurulia Junction (4)  21:35+2121:40+205m31557.557240mSERPurulia, West Bengal
30ANRAnara (2)  22:07+2022:08+211m--1583.328216mSERdist - Purulia, West Bengal
31JOCJoychandi Pahar (3)  22:37+1122:38+161m--1596.650176mSERDist - Purulia, West Bengal
32BURNBurnpur (3)  23:17+1723:18+231m--1628.86134mSERCHITRA CINEMA HALL MORE, West Bengal
33ASNAsansol Junction (7)XO00:05+400:30+625m52633.765113mERDist - Bardhaman, West Bengal
34CRJChittaranjan (3)X  00:54 00:53+1400:55+151 2m32658.866182mERMihijam, Jharkhand
35JMTJamtara (2)  01:07 01:08+1701:08 01:10+181 2m12673.174201mERJamtara, Jharkhand
36MDPMadhupur Junction (4)XO  01:49 01:44+1901:53 01:48+194m--2715.273254mER06432-224478, Jharkhand
37JSMEJasidih Junction (5)  02:18 02:12+2102:23 02:17+195m--2744.355271mERJasidih, Jharkhand
38JAJJhajha (4)X  03:12 03:05+1403:17 03:10+175m--2788.482143mECRJhajha, Bihar
39JMUJamui (3)  03:37 03:29+2903:38 03:31+331 2m--2814.46881mECRState Highway 72, Bihar
40KIULKiul Junction (5)XO  04:02 03:55+4204:07 04:00+435m--2841.71453mECRDist. Lakhisarai, Bihar
41LKRLuckeesarai Junction (2)O  04:14 04:06+4404:15 04:08+451 2m--2843.0-52mECRLakhisarai, Bihar
42BRYABarhiya (3)XO  04:29 04:11+5404:30 04:13+551 2m--2858.13047mECRBarahiya, Bihar
43HTZHathidah Junction (2)  04:42 04:32+5604:43 04:34+571 2m22867.55050mECRMusahari, Bihar
44MKAMokama Junction (4)  04:53 04:44+5904:55 04:46+1:002m12875.94248mECRPatna, Bihar
45BARHBarh (3)  05:14 05:23+1:0805:15 05:25+1:101 2m22901.86949mECRBarh, Bihar
46ATLAthmal Gola (2)  05:24 05:33+1:1005:25 05:35+1:121 2m12911.06052mECRPatna, Bihar
47BKPBakhtiyarpur Junction (5)  05:37 05:44+1:1105:39 05:46+1:152m22920.06951mECRPatna, Bihar
48FUTFatwa (6)X  06:12 06:06+1:2306:13 06:08+1:251 2m--2943.06753mECRPatna, Bihar
49PNCPatna Saheb (3)X  06:23 06:19+1:2406:24 06:21+1:261 2m--2955.31659mECRPatna 800008, Bihar
50RJPBRajendra Nagar Bihar (4)X  06:54 06:48+1:2006:56 06:50+1:232m32962.5855mECRPatna 800001, Bihar
51PNBE•Patna Junction (10)•X  07:10+1:0507:20+1:0710m32965.11657mECRPatna 800001, Bihar
52DNRDanapur (5)  07:55+1:20-52974.5-58mECRKhagaul, Bihar
Scroll to Top
Scroll to Bottom